createdAt,value
2016-11-19T00:00:49.076Z,12
2016-11-19T00:01:59.600Z,12
2016-11-19T00:03:10.229Z,12
2016-11-19T00:04:20.777Z,12
2016-11-19T00:05:31.303Z,12
2016-11-19T00:06:41.830Z,12
2016-11-19T00:07:52.352Z,12
2016-11-19T00:09:02.876Z,12
2016-11-19T00:10:13.400Z,12
2016-11-19T00:11:23.927Z,12
2016-11-19T00:12:34.457Z,12
2016-11-19T00:13:44.982Z,12
2016-11-19T00:14:55.714Z,12
2016-11-19T00:16:06.239Z,8
2016-11-19T00:17:16.769Z,4
2016-11-19T00:18:27.291Z,12
2016-11-19T00:19:52.339Z,12
2016-11-19T00:21:02.864Z,12
2016-11-19T00:22:13.393Z,12
2016-11-19T00:23:23.913Z,12
2016-11-19T00:24:34.439Z,12
2016-11-19T00:25:59.688Z,12
2016-11-19T00:27:10.217Z,12
2016-11-19T00:28:20.739Z,12
2016-11-19T00:29:31.307Z,12
2016-11-19T00:30:41.867Z,12
2016-11-19T00:32:07.418Z,12
2016-11-19T00:33:17.942Z,12
2016-11-19T00:34:28.468Z,12
2016-11-19T00:35:38.993Z,12
2016-11-19T00:36:49.720Z,12
2016-11-19T00:38:14.769Z,4
2016-11-19T00:39:25.294Z,12
2016-11-19T00:40:35.823Z,12
2016-11-19T00:41:46.552Z,12
2016-11-19T00:42:57.076Z,8
2016-11-19T00:44:07.603Z,12
2016-11-19T00:45:18.149Z,12
2016-11-19T00:46:28.677Z,4
2016-11-19T00:47:39.198Z,12
2016-11-19T00:48:49.725Z,12
2016-11-19T00:50:00.249Z,8
2016-11-19T00:51:10.805Z,12
2016-11-19T00:52:21.333Z,12
2016-11-19T00:53:31.856Z,12
2016-11-19T00:54:42.379Z,12
2016-11-19T00:55:52.911Z,12
2016-11-19T00:57:03.436Z,12
2016-11-19T00:58:13.960Z,12
2016-11-19T00:59:24.519Z,12
2016-11-19T01:00:35.077Z,12
2016-11-19T01:01:45.608Z,12
2016-11-19T01:02:56.160Z,12
2016-11-19T01:04:21.310Z,12
2016-11-19T01:05:31.834Z,12
2016-11-19T01:06:42.365Z,12
2016-11-19T01:07:52.888Z,12
2016-11-19T01:09:03.417Z,12
2016-11-19T01:10:14.142Z,12
2016-11-19T01:11:24.665Z,12
2016-11-19T01:12:35.190Z,12
2016-11-19T01:13:45.714Z,12
2016-11-19T01:14:56.240Z,12
2016-11-19T01:16:06.873Z,8
2016-11-19T01:17:17.395Z,12
2016-11-19T01:18:27.922Z,12
2016-11-19T01:19:38.372Z,12
2016-11-19T01:20:48.809Z,12
2016-11-19T01:21:59.441Z,12
2016-11-19T01:23:09.890Z,12
2016-11-19T01:24:20.324Z,12
2016-11-19T01:25:30.754Z,12
2016-11-19T01:26:41.192Z,12
2016-11-19T01:27:51.825Z,12
2016-11-19T01:29:02.262Z,12
2016-11-19T01:30:12.692Z,12
2016-11-19T01:31:23.129Z,4
2016-11-19T01:32:33.564Z,16
2016-11-19T01:33:43.996Z,12
2016-11-19T01:34:54.431Z,12
2016-11-19T01:36:04.896Z,12
2016-11-19T01:37:15.339Z,12
2016-11-19T01:38:25.775Z,12
2016-11-19T01:39:36.413Z,12
2016-11-19T01:40:46.847Z,12
2016-11-19T01:41:57.279Z,12
2016-11-19T01:43:07.715Z,12
2016-11-19T01:44:18.147Z,12
2016-11-19T01:45:28.580Z,12
2016-11-19T01:46:39.019Z,12
2016-11-19T01:48:03.995Z,12
2016-11-19T01:49:14.431Z,12
2016-11-19T01:50:25.069Z,12
2016-11-19T01:51:35.502Z,12
2016-11-19T01:52:45.941Z,12
2016-11-19T01:53:56.380Z,12
2016-11-19T01:55:06.817Z,12
2016-11-19T01:56:17.455Z,12
2016-11-19T01:57:28.378Z,12
2016-11-19T01:58:38.815Z,12
2016-11-19T01:59:49.251Z,8
2016-11-19T02:00:59.686Z,12
2016-11-19T02:02:10.318Z,8
2016-11-19T02:03:20.754Z,12
2016-11-19T02:04:31.259Z,12
2016-11-19T02:05:41.788Z,12
2016-11-19T02:06:52.309Z,12
2016-11-19T02:08:03.037Z,12
2016-11-19T02:09:13.563Z,4
2016-11-19T02:10:38.607Z,12
2016-11-19T02:11:49.132Z,12
2016-11-19T02:12:59.889Z,12
2016-11-19T02:14:10.413Z,12
2016-11-19T02:15:21.445Z,12
2016-11-19T02:16:31.970Z,8
2016-11-19T02:17:42.498Z,4
2016-11-19T02:18:53.218Z,12
2016-11-19T02:20:18.267Z,12
2016-11-19T02:21:28.797Z,12
2016-11-19T02:22:39.355Z,12
2016-11-19T02:23:50.115Z,12
2016-11-19T02:25:00.641Z,12
2016-11-19T02:26:11.166Z,12
2016-11-19T02:27:21.687Z,12
2016-11-19T02:28:32.197Z,12
2016-11-19T02:29:42.643Z,12
2016-11-19T02:30:53.093Z,12
2016-11-19T02:32:03.539Z,12
2016-11-19T02:33:13.985Z,16
2016-11-19T02:34:24.443Z,12
2016-11-19T02:35:34.891Z,12
2016-11-19T02:36:45.337Z,12
2016-11-19T02:37:55.787Z,8
2016-11-19T02:39:06.232Z,4
2016-11-19T02:40:16.681Z,12
2016-11-19T02:41:41.667Z,12
2016-11-19T02:42:52.120Z,12
2016-11-19T02:44:17.109Z,12
2016-11-19T02:45:27.560Z,4
2016-11-19T02:46:37.929Z,12
2016-11-19T02:47:48.261Z,12
2016-11-19T02:48:59.062Z,12
2016-11-19T02:50:09.387Z,4
2016-11-19T02:51:19.716Z,16
2016-11-19T02:52:30.043Z,12
2016-11-19T02:53:40.366Z,4
2016-11-19T02:54:50.691Z,12
2016-11-19T02:56:01.023Z,12
2016-11-19T02:57:11.356Z,12
2016-11-19T02:58:21.886Z,12
2016-11-19T02:59:32.212Z,12
2016-11-19T03:00:42.537Z,12
2016-11-19T03:01:52.866Z,12
2016-11-19T03:03:03.196Z,12
2016-11-19T03:04:13.523Z,12
2016-11-19T03:06:48.737Z,12
2016-11-19T03:07:59.065Z,12
2016-11-19T03:09:09.390Z,12
2016-11-19T03:10:19.705Z,12
2016-11-19T03:11:44.590Z,12
2016-11-19T03:12:54.905Z,12
2016-11-19T03:14:05.218Z,12
2016-11-19T03:15:15.735Z,12
2016-11-19T03:16:26.056Z,12
2016-11-19T03:17:36.846Z,12
2016-11-19T03:18:47.198Z,12
2016-11-19T03:19:57.711Z,12
2016-11-19T03:21:08.023Z,12
2016-11-19T03:22:32.906Z,12
2016-11-19T03:23:57.783Z,12
2016-11-19T03:25:08.103Z,12
2016-11-19T03:26:32.988Z,12
2016-11-19T03:27:43.301Z,12
2016-11-19T03:28:53.614Z,12
2016-11-19T03:30:04.163Z,12
2016-11-19T03:31:14.490Z,12
2016-11-19T03:32:24.810Z,12
2016-11-19T03:33:35.125Z,12
2016-11-19T03:34:45.437Z,12
2016-11-19T03:35:55.952Z,12
2016-11-19T03:37:06.271Z,12
2016-11-19T03:38:16.588Z,12
2016-11-19T03:39:26.898Z,12
2016-11-19T03:40:37.216Z,12
2016-11-19T03:41:47.533Z,12
2016-11-19T03:42:57.849Z,12
2016-11-19T03:44:08.158Z,12
2016-11-19T03:45:18.471Z,12
2016-11-19T03:46:28.785Z,12
2016-11-19T03:47:39.297Z,12
2016-11-19T03:48:49.611Z,12
2016-11-19T03:49:59.923Z,12
2016-11-19T03:51:10.233Z,12
2016-11-19T03:52:20.553Z,12
2016-11-19T03:53:31.069Z,12
2016-11-19T03:54:41.387Z,12
2016-11-19T03:56:06.283Z,12
2016-11-19T03:57:16.608Z,12
2016-11-19T03:58:27.133Z,12
2016-11-19T03:59:37.465Z,12
2016-11-19T04:00:47.790Z,12
2016-11-19T04:01:58.120Z,12
2016-11-19T04:03:08.446Z,12
2016-11-19T04:04:18.767Z,12
2016-11-19T04:05:29.096Z,12
2016-11-19T04:06:39.433Z,12
2016-11-19T04:07:49.765Z,12
2016-11-19T04:09:00.095Z,12
2016-11-19T04:10:10.673Z,12
2016-11-19T04:11:20.995Z,12
2016-11-19T04:12:31.316Z,12
2016-11-19T04:13:41.644Z,12
2016-11-19T04:14:51.970Z,12
2016-11-19T04:16:02.777Z,12
2016-11-19T04:17:13.101Z,12
2016-11-19T04:18:23.428Z,12
2016-11-19T04:19:33.755Z,12
2016-11-19T04:20:44.078Z,12
2016-11-19T04:21:54.601Z,12
2016-11-19T04:23:04.925Z,12
2016-11-19T04:24:15.248Z,12
2016-11-19T04:25:25.608Z,12
2016-11-19T04:26:35.930Z,12
2016-11-19T04:27:46.454Z,12
2016-11-19T04:28:56.778Z,12
2016-11-19T04:30:07.105Z,12
2016-11-19T04:31:17.428Z,12
2016-11-19T04:32:27.754Z,12
2016-11-19T04:33:38.279Z,12
2016-11-19T04:34:48.604Z,8
2016-11-19T04:35:58.929Z,8
2016-11-19T04:37:09.256Z,8
2016-11-19T04:38:19.583Z,12
2016-11-19T04:39:30.114Z,8
2016-11-19T04:40:40.425Z,8
2016-11-19T04:41:50.741Z,12
2016-11-19T04:43:01.055Z,8
2016-11-19T04:44:11.370Z,12
2016-11-19T04:45:36.452Z,8
2016-11-19T04:46:46.769Z,8
2016-11-19T04:47:57.085Z,8
2016-11-19T04:49:07.433Z,8
2016-11-19T04:50:17.744Z,12
2016-11-19T04:51:28.059Z,8
2016-11-19T04:52:38.379Z,8
2016-11-19T04:53:48.698Z,12
2016-11-19T04:54:59.011Z,12
2016-11-19T04:56:09.326Z,12
2016-11-19T04:57:19.644Z,4
2016-11-19T04:58:29.956Z,12
2016-11-19T04:59:40.297Z,12
2016-11-19T05:00:50.611Z,12
2016-11-19T05:02:00.932Z,12
2016-11-19T05:03:11.443Z,12
2016-11-19T05:04:21.761Z,12
2016-11-19T05:05:32.077Z,12
2016-11-19T05:06:42.392Z,12
2016-11-19T05:07:52.704Z,12
2016-11-19T05:09:03.218Z,12
2016-11-19T05:10:13.533Z,12
2016-11-19T05:11:23.848Z,12
2016-11-19T05:12:34.160Z,8
2016-11-19T05:13:44.508Z,8
2016-11-19T05:14:55.022Z,12
2016-11-19T05:16:05.335Z,12
2016-11-19T05:17:15.648Z,12
2016-11-19T05:18:25.968Z,12
2016-11-19T05:19:36.287Z,12
2016-11-19T05:20:46.603Z,12
2016-11-19T05:21:56.912Z,12
2016-11-19T05:23:07.236Z,12
2016-11-19T05:24:17.549Z,12
2016-11-19T05:25:27.862Z,12
2016-11-19T05:26:38.375Z,12
2016-11-19T05:27:48.689Z,12
2016-11-19T05:28:59.004Z,12
2016-11-19T05:30:09.323Z,12
2016-11-19T05:31:19.635Z,12
2016-11-19T05:32:30.193Z,12
2016-11-19T05:33:40.511Z,12
2016-11-19T05:34:50.824Z,12
2016-11-19T05:36:01.137Z,12
2016-11-19T05:37:26.017Z,12
2016-11-19T05:38:36.328Z,12
2016-11-19T05:39:46.643Z,12
2016-11-19T05:40:56.962Z,12
2016-11-19T05:42:07.277Z,12
2016-11-19T05:43:17.790Z,12
2016-11-19T05:44:28.102Z,12
2016-11-19T05:45:38.418Z,12
2016-11-19T05:46:48.761Z,12
2016-11-19T05:47:59.076Z,12
2016-11-19T05:49:10.420Z,12
2016-11-19T05:50:20.728Z,12
2016-11-19T05:51:31.046Z,12
2016-11-19T05:52:41.369Z,12
2016-11-19T05:53:51.685Z,12
2016-11-19T05:55:16.662Z,12
2016-11-19T05:56:26.976Z,8
2016-11-19T05:59:02.164Z,12
2016-11-19T06:00:12.678Z,12
2016-11-19T06:01:23.022Z,12
2016-11-19T06:02:33.350Z,12
2016-11-19T06:03:43.666Z,8
2016-11-19T06:04:53.986Z,12
2016-11-19T06:06:04.429Z,8
2016-11-19T06:07:15.212Z,8
2016-11-19T06:08:25.530Z,12
2016-11-19T06:09:35.843Z,8
2016-11-19T06:10:46.158Z,8
2016-11-19T06:11:56.487Z,12
2016-11-19T06:13:06.883Z,12
2016-11-19T06:14:17.319Z,8
2016-11-19T06:15:27.750Z,8
2016-11-19T06:16:38.181Z,8
2016-11-19T06:17:48.811Z,8
2016-11-19T06:18:59.243Z,8
2016-11-19T06:20:09.702Z,8
2016-11-19T06:21:20.135Z,8
2016-11-19T06:22:30.606Z,12
2016-11-19T06:23:41.137Z,8
2016-11-19T06:24:51.568Z,12
2016-11-19T06:26:16.575Z,8
2016-11-19T06:27:27.011Z,8
2016-11-19T06:28:37.440Z,12
2016-11-19T06:29:47.876Z,8
2016-11-19T06:30:58.308Z,12
2016-11-19T06:32:08.747Z,12
2016-11-19T06:33:19.175Z,12
2016-11-19T06:34:29.805Z,12
2016-11-19T06:35:40.331Z,12
2016-11-19T06:38:15.909Z,12
2016-11-19T06:39:26.433Z,12
2016-11-19T06:40:36.953Z,12
2016-11-19T06:41:47.477Z,12
2016-11-19T06:42:57.999Z,12
2016-11-19T06:44:08.523Z,12
2016-11-19T06:46:44.095Z,12
2016-11-19T06:47:54.656Z,12
2016-11-19T06:49:05.682Z,12
2016-11-19T06:50:16.307Z,12
2016-11-19T06:51:26.841Z,12
2016-11-19T06:52:37.362Z,12
2016-11-19T06:53:47.885Z,12
2016-11-19T06:54:58.409Z,12
2016-11-19T06:56:09.033Z,12
2016-11-19T06:57:19.559Z,12
2016-11-19T06:58:30.080Z,12
2016-11-19T06:59:40.604Z,12
2016-11-19T07:00:51.136Z,12
2016-11-19T07:02:01.762Z,12
2016-11-19T07:03:12.324Z,12
2016-11-19T07:04:22.857Z,12
2016-11-19T07:05:33.381Z,12
2016-11-19T07:06:43.932Z,12
2016-11-19T07:07:54.585Z,12
2016-11-19T07:09:05.107Z,12
2016-11-19T07:10:15.635Z,12
2016-11-19T07:11:26.162Z,12
2016-11-19T07:12:36.682Z,8
2016-11-19T07:13:47.205Z,4
2016-11-19T07:14:57.730Z,12
2016-11-19T07:16:08.250Z,8
2016-11-19T07:17:18.778Z,8
2016-11-19T07:18:29.302Z,4
2016-11-19T07:19:39.755Z,16
2016-11-19T07:20:50.186Z,12
2016-11-19T07:22:00.614Z,12
2016-11-19T07:23:11.064Z,12
2016-11-19T07:24:21.498Z,4
2016-11-19T07:25:31.934Z,12
2016-11-19T07:26:42.367Z,12
2016-11-19T07:28:07.342Z,4
2016-11-19T07:29:32.312Z,12
2016-11-19T07:30:42.743Z,12
2016-11-19T07:31:53.177Z,12
2016-11-19T07:33:03.614Z,8
2016-11-19T07:34:14.535Z,12
2016-11-19T07:35:24.967Z,8
2016-11-19T07:36:35.398Z,12
2016-11-19T07:37:45.838Z,12
2016-11-19T07:38:56.270Z,12
2016-11-19T07:40:06.700Z,12
2016-11-19T07:41:17.139Z,12
2016-11-19T07:42:27.672Z,12
2016-11-19T07:43:38.135Z,8
2016-11-19T07:44:48.563Z,12
2016-11-19T07:45:58.994Z,8
2016-11-19T07:47:09.433Z,8
2016-11-19T07:48:19.961Z,12
2016-11-19T07:49:30.396Z,12
2016-11-19T07:50:40.829Z,12
2016-11-19T07:51:51.272Z,12
2016-11-19T07:53:01.706Z,12
2016-11-19T07:54:12.238Z,12
2016-11-19T07:55:22.672Z,12
2016-11-19T07:56:33.101Z,12
2016-11-19T07:57:43.533Z,12
2016-11-19T07:58:53.961Z,12
2016-11-19T08:00:18.935Z,16
2016-11-19T08:01:29.370Z,16
2016-11-19T08:02:39.800Z,16
2016-11-19T08:03:50.242Z,16
2016-11-19T08:05:00.951Z,20
2016-11-19T08:06:11.482Z,20
2016-11-19T08:07:22.006Z,12
2016-11-19T08:08:32.565Z,12
2016-11-19T08:09:43.087Z,16
2016-11-19T08:10:53.621Z,16
2016-11-19T08:12:04.148Z,16
2016-11-19T08:13:14.671Z,20
2016-11-19T08:14:25.199Z,24
2016-11-19T08:15:35.720Z,24
2016-11-19T08:16:46.441Z,24
2016-11-19T08:17:56.966Z,32
2016-11-19T08:19:07.490Z,32
2016-11-19T08:20:18.023Z,36
2016-11-19T08:21:28.547Z,40
2016-11-19T08:22:39.568Z,40
2016-11-19T08:23:50.094Z,40
2016-11-19T08:25:00.619Z,44
2016-11-19T08:26:11.181Z,48
2016-11-19T08:27:21.711Z,48
2016-11-19T08:28:32.235Z,52
2016-11-19T08:29:42.760Z,52
2016-11-19T08:30:53.282Z,60
2016-11-19T08:32:18.332Z,76
2016-11-19T08:33:28.856Z,88
2016-11-19T08:34:39.386Z,100
2016-11-19T08:35:49.910Z,96
2016-11-19T08:37:00.439Z,100
2016-11-19T08:38:10.998Z,100
2016-11-19T08:39:21.625Z,104
2016-11-19T08:40:32.152Z,112
2016-11-19T08:41:42.679Z,116
2016-11-19T08:42:53.203Z,124
2016-11-19T08:44:03.766Z,144
2016-11-19T08:45:14.392Z,144
2016-11-19T08:46:24.925Z,144
2016-11-19T08:47:35.447Z,156
2016-11-19T08:48:45.968Z,156
2016-11-19T08:49:56.499Z,168
2016-11-19T08:51:07.225Z,180
2016-11-19T08:52:17.751Z,192
2016-11-19T08:53:28.280Z,232
2016-11-19T08:54:53.331Z,336
2016-11-19T08:56:03.856Z,384
2016-11-19T08:57:28.904Z,384
2016-11-19T08:58:39.431Z,356
2016-11-19T08:59:49.952Z,344
2016-11-19T09:01:00.482Z,356
2016-11-19T09:02:11.212Z,396
2016-11-19T09:03:21.739Z,420
2016-11-19T09:04:46.819Z,372
2016-11-19T09:06:12.073Z,304
2016-11-19T09:07:22.599Z,364
2016-11-19T09:08:33.122Z,464
2016-11-19T09:09:43.645Z,456
2016-11-19T09:10:54.170Z,424
2016-11-19T09:12:04.736Z,360
2016-11-19T09:13:15.259Z,304
2016-11-19T09:14:25.818Z,276
2016-11-19T09:15:36.346Z,328
2016-11-19T09:18:12.017Z,168
2016-11-19T09:19:22.542Z,148
2016-11-19T09:20:33.067Z,140
2016-11-19T09:21:43.597Z,136
2016-11-19T09:22:54.716Z,156
2016-11-19T09:24:05.242Z,216
2016-11-19T09:25:15.770Z,244
2016-11-19T09:26:26.297Z,192
2016-11-19T09:27:36.847Z,148
2016-11-19T09:28:47.572Z,132
2016-11-19T09:29:58.105Z,128
2016-11-19T09:31:08.655Z,132
2016-11-19T09:32:19.184Z,120
2016-11-19T09:33:30.203Z,116
2016-11-19T09:34:40.823Z,124
2016-11-19T09:35:51.347Z,120
2016-11-19T09:37:01.877Z,112
2016-11-19T09:38:12.398Z,104
2016-11-19T09:39:22.920Z,124
2016-11-19T09:40:33.647Z,164
2016-11-19T09:41:44.168Z,140
2016-11-19T09:42:54.691Z,132
2016-11-19T09:44:05.213Z,176
2016-11-19T09:45:15.737Z,200
2016-11-19T09:46:26.265Z,192
2016-11-19T09:47:36.789Z,136
2016-11-19T09:48:47.311Z,72
2016-11-19T09:49:57.830Z,68
2016-11-19T09:51:08.353Z,92
2016-11-19T09:52:18.881Z,84
2016-11-19T09:54:39.921Z,68
2016-11-19T09:55:50.446Z,80
2016-11-19T09:57:00.973Z,92
2016-11-19T09:58:11.500Z,200
2016-11-19T09:59:22.022Z,292
2016-11-19T10:00:32.551Z,344
2016-11-19T10:01:43.077Z,436
2016-11-19T10:02:53.627Z,476
2016-11-19T10:04:04.154Z,476
2016-11-19T10:05:14.705Z,448
2016-11-19T10:06:25.226Z,368
2016-11-19T10:07:35.747Z,284
2016-11-19T10:08:46.270Z,248
2016-11-19T10:09:56.892Z,244
2016-11-19T10:11:07.414Z,236
2016-11-19T10:12:17.940Z,280
2016-11-19T10:13:28.465Z,332
2016-11-19T10:14:38.986Z,348
2016-11-19T10:17:14.756Z,316
2016-11-19T10:18:25.281Z,300
2016-11-19T10:19:35.728Z,284
2016-11-19T10:20:46.157Z,296
2016-11-19T10:21:56.591Z,304
2016-11-19T10:23:07.023Z,264
2016-11-19T10:24:17.450Z,220
2016-11-19T10:25:27.884Z,236
2016-11-19T10:26:38.325Z,296
2016-11-19T10:27:48.757Z,324
2016-11-19T10:29:13.732Z,368
2016-11-19T10:30:24.162Z,300
2016-11-19T10:31:34.693Z,272
2016-11-19T10:32:45.119Z,228
2016-11-19T10:37:00.040Z,284
2016-11-19T10:38:10.472Z,332
2016-11-19T10:39:20.901Z,332
2016-11-19T10:40:31.332Z,504
2016-11-19T10:41:41.765Z,536
2016-11-19T10:42:52.197Z,476
2016-11-19T10:44:02.627Z,388
2016-11-19T10:45:13.072Z,328
2016-11-19T10:46:23.532Z,288
2016-11-19T10:47:33.963Z,336
2016-11-19T10:48:44.394Z,324
2016-11-19T10:49:54.825Z,356
2016-11-19T10:51:05.256Z,356
2016-11-19T10:52:15.687Z,664
2016-11-19T10:53:26.612Z,860
2016-11-19T10:54:37.046Z,856
2016-11-19T10:55:47.489Z,1012
2016-11-19T10:56:57.917Z,700
2016-11-19T10:58:08.351Z,660
2016-11-19T10:59:33.533Z,640
2016-11-19T11:00:43.962Z,472
2016-11-19T11:01:54.422Z,364
2016-11-19T11:03:04.854Z,484
2016-11-19T11:04:15.282Z,824
2016-11-19T11:05:25.744Z,992
2016-11-19T11:06:36.174Z,1044
2016-11-19T11:07:46.609Z,820
2016-11-19T11:08:57.043Z,548
2016-11-19T11:10:07.475Z,664
2016-11-19T11:11:18.006Z,716
2016-11-19T11:12:28.438Z,684
2016-11-19T11:13:38.869Z,504
2016-11-19T11:14:49.304Z,356
2016-11-19T11:15:59.738Z,296
2016-11-19T11:17:10.170Z,188
2016-11-19T11:18:20.598Z,236
2016-11-19T11:19:31.029Z,280
2016-11-19T11:22:06.644Z,244
2016-11-19T11:23:17.075Z,256
2016-11-19T11:24:27.506Z,288
2016-11-19T11:25:37.935Z,400
2016-11-19T11:26:48.366Z,508
2016-11-19T11:27:58.806Z,576
2016-11-19T11:29:09.236Z,736
2016-11-19T11:30:19.668Z,568
2016-11-19T11:31:44.649Z,460
2016-11-19T11:32:55.296Z,416
2016-11-19T11:34:05.734Z,372
2016-11-19T11:35:16.169Z,284
2016-11-19T11:36:26.604Z,292
2016-11-19T11:37:37.034Z,348
2016-11-19T11:39:02.009Z,416
2016-11-19T11:40:12.441Z,528
2016-11-19T11:41:22.872Z,584
2016-11-19T11:42:33.305Z,556
2016-11-19T11:43:43.958Z,616
2016-11-19T11:44:54.395Z,704
2016-11-19T11:46:04.823Z,804
2016-11-19T11:47:15.253Z,836
2016-11-19T11:48:25.684Z,760
2016-11-19T11:49:36.115Z,980
2016-11-19T11:50:46.580Z,1052
2016-11-19T11:52:11.555Z,736
2016-11-19T11:53:36.533Z,608
2016-11-19T11:54:46.972Z,664
2016-11-19T11:55:57.407Z,656
2016-11-19T11:57:07.865Z,592
2016-11-19T11:58:18.295Z,520
2016-11-19T11:59:28.729Z,644
2016-11-19T12:00:39.159Z,660
2016-11-19T12:01:50.085Z,684
2016-11-19T12:03:00.522Z,1876
2016-11-19T12:04:10.954Z,848
2016-11-19T12:05:21.387Z,1632
2016-11-19T12:06:31.919Z,2152
2016-11-19T12:07:42.351Z,2236
2016-11-19T12:08:52.783Z,2260
2016-11-19T12:10:03.216Z,988
2016-11-19T12:11:13.646Z,2336
2016-11-19T12:12:24.084Z,2424
2016-11-19T12:13:34.516Z,2392
2016-11-19T12:14:44.947Z,2396
2016-11-19T12:15:55.390Z,1272
2016-11-19T12:17:05.833Z,1348
2016-11-19T12:18:16.297Z,1704
2016-11-19T12:19:26.725Z,2740
2016-11-19T12:20:37.159Z,1316
2016-11-19T12:21:47.592Z,2840
2016-11-19T12:22:58.026Z,2728
2016-11-19T12:24:08.460Z,2624
2016-11-19T12:25:18.899Z,860
2016-11-19T12:26:29.355Z,936
2016-11-19T12:27:40.275Z,892
2016-11-19T12:28:50.704Z,768
2016-11-19T12:30:01.342Z,644
2016-11-19T12:31:26.316Z,668
2016-11-19T12:32:36.753Z,748
2016-11-19T12:33:47.194Z,780
2016-11-19T12:36:22.758Z,612
2016-11-19T12:37:33.286Z,704
2016-11-19T12:38:43.841Z,792
2016-11-19T12:39:54.365Z,888
2016-11-19T12:41:04.891Z,908
2016-11-19T12:42:29.947Z,1056
2016-11-19T12:43:40.476Z,1596
2016-11-19T12:44:50.999Z,2928
2016-11-19T12:46:01.643Z,2876
2016-11-19T12:47:12.176Z,2840
2016-11-19T12:48:22.701Z,2876
2016-11-19T12:50:58.284Z,2660
2016-11-19T12:52:08.809Z,2912
2016-11-19T12:53:19.367Z,2824
2016-11-19T12:54:29.899Z,2844
2016-11-19T12:55:40.426Z,2952
2016-11-19T12:56:50.951Z,2932
2016-11-19T12:58:01.474Z,1324
2016-11-19T12:59:11.999Z,1420
2016-11-19T13:00:22.525Z,1308
2016-11-19T13:01:33.052Z,1260
2016-11-19T13:02:43.574Z,1008
2016-11-19T13:03:54.102Z,720
2016-11-19T13:05:04.660Z,648
2016-11-19T13:06:15.185Z,684
2016-11-19T13:07:25.743Z,3028
2016-11-19T13:08:36.273Z,896
2016-11-19T13:09:46.798Z,936
2016-11-19T13:10:57.860Z,1064
2016-11-19T13:12:08.329Z,1120
2016-11-19T13:13:18.739Z,1652
2016-11-19T13:14:29.152Z,1084
2016-11-19T13:15:39.564Z,944
2016-11-19T13:16:49.971Z,1004
2016-11-19T13:18:00.382Z,1000
2016-11-19T13:19:25.444Z,960
2016-11-19T13:20:35.851Z,1128
2016-11-19T13:21:46.262Z,3216
2016-11-19T13:22:56.668Z,3016
2016-11-19T13:24:07.080Z,3004
2016-11-19T13:25:17.488Z,3092
2016-11-19T13:26:27.899Z,3180
2016-11-19T13:27:38.302Z,3216
2016-11-19T13:28:48.710Z,1676
2016-11-19T13:29:59.115Z,2160
2016-11-19T13:31:09.626Z,1808
2016-11-19T13:32:20.037Z,2584
2016-11-19T13:33:30.447Z,1540
2016-11-19T13:34:40.855Z,1780
2016-11-19T13:35:51.758Z,2124
2016-11-19T13:37:02.371Z,2328
2016-11-19T13:38:12.779Z,3540
2016-11-19T13:39:23.192Z,1228
2016-11-19T13:40:33.609Z,1128
2016-11-19T13:41:44.020Z,1116
2016-11-19T13:42:54.658Z,1188
2016-11-19T13:44:05.065Z,1260
2016-11-19T13:45:15.476Z,1416
2016-11-19T13:46:25.890Z,1616
2016-11-19T13:47:36.799Z,1528
2016-11-19T13:48:47.238Z,3100
2016-11-19T13:49:57.646Z,1504
2016-11-19T13:51:08.549Z,1352
2016-11-19T13:52:18.958Z,1380
2016-11-19T13:53:29.366Z,1344
2016-11-19T13:54:39.780Z,1316
2016-11-19T13:56:04.745Z,1168
2016-11-19T13:57:15.152Z,1068
2016-11-19T13:58:40.110Z,1000
2016-11-19T13:59:50.544Z,908
2016-11-19T14:01:15.504Z,840
2016-11-19T14:02:25.913Z,784
2016-11-19T14:03:36.318Z,820
2016-11-19T14:04:46.756Z,860
2016-11-19T14:05:57.163Z,944
2016-11-19T14:07:07.573Z,1012
2016-11-19T14:08:17.999Z,988
2016-11-19T14:09:42.955Z,1120
2016-11-19T14:10:53.364Z,3672
2016-11-19T14:12:03.784Z,2468
2016-11-19T14:13:14.194Z,1360
2016-11-19T14:14:24.609Z,1216
2016-11-19T14:15:35.020Z,1188
2016-11-19T14:16:45.426Z,1224
2016-11-19T14:17:55.829Z,1320
2016-11-19T14:20:31.203Z,1300
2016-11-19T14:21:41.615Z,1192
2016-11-19T14:22:52.516Z,1128
2016-11-19T14:24:02.923Z,1116
2016-11-19T14:25:13.332Z,1228
2016-11-19T14:26:23.840Z,1476
2016-11-19T14:27:34.248Z,1768
2016-11-19T14:28:44.661Z,3260
2016-11-19T14:29:55.099Z,2352
2016-11-19T14:31:20.255Z,1856
2016-11-19T14:32:30.665Z,2020
2016-11-19T14:33:41.071Z,1968
2016-11-19T14:34:51.481Z,1684
2016-11-19T14:36:01.891Z,1072
2016-11-19T14:37:12.402Z,976
2016-11-19T14:38:22.833Z,1044
2016-11-19T14:39:33.247Z,1112
2016-11-19T14:40:43.654Z,1072
2016-11-19T14:41:54.057Z,1248
2016-11-19T14:43:04.471Z,1280
2016-11-19T14:44:14.887Z,1384
2016-11-19T14:45:25.310Z,1488
2016-11-19T14:46:50.271Z,1476
2016-11-19T14:48:00.712Z,1560
2016-11-19T14:49:11.121Z,1868
2016-11-19T14:50:36.594Z,3016
2016-11-19T14:52:01.592Z,3328
2016-11-19T14:53:13.002Z,1800
2016-11-19T14:54:38.454Z,1596
2016-11-19T14:55:48.862Z,1424
2016-11-19T14:56:59.275Z,1572
2016-11-19T14:58:09.689Z,1712
2016-11-19T14:59:20.099Z,3172
2016-11-19T15:00:30.511Z,3040
2016-11-19T15:01:40.941Z,1904
2016-11-19T15:03:05.901Z,1704
2016-11-19T15:04:30.958Z,1412
2016-11-19T15:05:41.375Z,1212
2016-11-19T15:07:06.335Z,1140
2016-11-19T15:08:31.397Z,872
2016-11-19T15:09:41.839Z,824
2016-11-19T15:10:52.248Z,1044
2016-11-19T15:12:02.659Z,1196
2016-11-19T15:13:13.068Z,1300
2016-11-19T15:14:23.968Z,1348
2016-11-19T15:15:34.373Z,1376
2016-11-19T15:16:44.778Z,1480
2016-11-19T15:17:55.186Z,1600
2016-11-19T15:19:05.600Z,1560
2016-11-19T15:20:16.011Z,1276
2016-11-19T15:21:26.420Z,1148
2016-11-19T15:22:36.864Z,2420
2016-11-19T15:23:47.272Z,2420
2016-11-19T15:24:57.884Z,1432
2016-11-19T15:26:08.295Z,2632
2016-11-19T15:27:19.195Z,2136
2016-11-19T15:28:29.607Z,2376
2016-11-19T15:29:40.020Z,1684
2016-11-19T15:30:50.533Z,1636
2016-11-19T15:32:00.944Z,1896
2016-11-19T15:33:11.356Z,1632
2016-11-19T15:34:21.694Z,2716
2016-11-19T15:36:57.024Z,2524
2016-11-19T15:38:07.338Z,2340
2016-11-19T15:39:32.227Z,848
2016-11-19T15:40:42.545Z,2344
2016-11-19T15:41:52.863Z,2480
2016-11-19T15:43:03.211Z,2732
2016-11-19T15:44:13.529Z,2900
2016-11-19T15:45:23.843Z,2452
2016-11-19T15:47:59.945Z,1188
2016-11-19T15:49:10.740Z,1124
2016-11-19T15:50:21.063Z,1152
2016-11-19T15:51:31.383Z,1080
2016-11-19T15:52:41.806Z,1072
2016-11-19T15:53:52.125Z,1132
2016-11-19T15:55:02.479Z,2288
2016-11-19T15:56:12.796Z,2284
2016-11-19T15:57:23.117Z,2420
2016-11-19T15:59:58.899Z,1220
2016-11-19T16:01:09.219Z,1132
2016-11-19T16:02:19.537Z,1016
2016-11-19T16:03:29.959Z,1040
2016-11-19T16:04:41.053Z,1012
2016-11-19T16:05:51.375Z,1024
2016-11-19T16:07:01.773Z,1056
2016-11-19T16:08:26.758Z,1168
2016-11-19T16:09:37.295Z,1264
2016-11-19T16:10:47.731Z,1208
2016-11-19T16:11:58.173Z,1184
2016-11-19T16:13:08.614Z,1220
2016-11-19T16:14:19.050Z,1192
2016-11-19T16:15:29.486Z,2024
2016-11-19T16:16:39.921Z,2068
2016-11-19T16:17:50.357Z,1376
2016-11-19T16:19:00.794Z,1212
2016-11-19T16:20:11.435Z,1120
2016-11-19T16:21:21.874Z,1136
2016-11-19T16:22:32.314Z,1112
2016-11-19T16:23:42.759Z,1032
2016-11-19T16:24:53.192Z,1144
2016-11-19T16:26:03.632Z,1476
2016-11-19T16:27:14.077Z,1788
2016-11-19T16:28:24.516Z,1864
2016-11-19T16:29:34.956Z,1864
2016-11-19T16:30:45.397Z,1848
2016-11-19T16:31:56.320Z,1900
2016-11-19T16:33:06.754Z,1336
2016-11-19T16:34:17.188Z,1244
2016-11-19T16:35:27.628Z,1124
2016-11-19T16:36:38.065Z,1084
2016-11-19T16:37:48.709Z,1056
2016-11-19T16:38:59.147Z,1548
2016-11-19T16:40:09.582Z,1560
2016-11-19T16:41:20.017Z,1668
2016-11-19T16:42:30.458Z,1840
2016-11-19T16:43:41.098Z,1572
2016-11-19T16:44:51.538Z,1316
2016-11-19T16:46:01.970Z,1296
2016-11-19T16:47:12.410Z,1168
2016-11-19T16:48:22.845Z,1036
2016-11-19T16:49:33.487Z,1072
2016-11-19T16:50:43.924Z,1248
2016-11-19T16:51:54.360Z,1916
2016-11-19T16:53:04.794Z,1560
2016-11-19T16:54:15.236Z,1268
2016-11-19T16:55:26.160Z,1096
2016-11-19T16:56:36.595Z,1080